createdAt,value
2022-11-28T00:01:33.276Z,233.50
2022-11-28T00:04:01.887Z,240.52
2022-11-28T00:06:32.251Z,255.10
2022-11-28T00:09:01.481Z,245.15
2022-11-28T00:11:29.986Z,247.27
2022-11-28T00:13:58.301Z,236.20
2022-11-28T00:16:27.183Z,233.55
2022-11-28T00:18:56.761Z,244.93
2022-11-28T00:21:25.750Z,246.30
2022-11-28T00:23:55.904Z,251.63
2022-11-28T00:26:27.158Z,200.48
2022-11-28T00:28:57.125Z,248.55
2022-11-28T00:31:27.160Z,222.48
2022-11-28T00:33:55.799Z,219.27
2022-11-28T00:36:25.254Z,215.30
2022-11-28T00:38:55.782Z,407.83
2022-11-28T00:41:26.215Z,255.23
2022-11-28T00:43:55.232Z,253.05
2022-11-28T00:46:24.557Z,182.90
2022-11-28T00:48:55.172Z,224.88
2022-11-28T00:51:25.004Z,246.07
2022-11-28T00:53:56.044Z,247.48
2022-11-28T00:56:26.279Z,247.63
2022-11-28T00:58:55.276Z,207.07
2022-11-28T01:01:26.746Z,202.68
2022-11-28T01:03:56.904Z,243.05
2022-11-28T01:06:27.150Z,233.85
2022-11-28T01:08:58.987Z,190.63
2022-11-28T01:11:27.962Z,225.63
2022-11-28T01:13:59.717Z,199.60
2022-11-28T01:16:28.544Z,243.85
2022-11-28T01:18:58.067Z,231.50
2022-11-28T01:21:27.218Z,255.38
2022-11-28T01:23:57.383Z,194.52
2022-11-28T01:26:28.218Z,199.23
2022-11-28T01:28:57.106Z,239.13
2022-11-28T01:31:27.363Z,249.27
2022-11-28T01:33:56.123Z,278.85
2022-11-28T01:36:25.303Z,275.05
2022-11-28T01:38:54.112Z,253.48
2022-11-28T01:41:27.003Z,254.48
2022-11-28T01:44:05.471Z,256.50
2022-11-28T01:46:35.578Z,186.68
2022-11-28T01:49:09.112Z,238.95
2022-11-28T01:51:38.054Z,238.95
2022-11-28T01:54:06.867Z,235.70
2022-11-28T01:56:44.697Z,181.93
2022-11-28T01:59:13.983Z,242.48
2022-11-28T02:01:43.460Z,247.75
2022-11-28T02:04:12.057Z,247.35
2022-11-28T02:06:40.830Z,383.23
2022-11-28T02:09:12.800Z,216.57
2022-11-28T02:12:17.061Z,222.10
2022-11-28T02:15:08.601Z,172.07
2022-11-28T02:17:45.322Z,230.65
2022-11-28T02:20:58.446Z,232.40
2022-11-28T02:23:32.760Z,227.88
2022-11-28T02:26:33.302Z,240.80
2022-11-28T02:29:38.137Z,244.93
2022-11-28T02:32:16.721Z,223.87
2022-11-28T02:34:50.514Z,205.82
2022-11-28T02:37:26.306Z,222.07
2022-11-28T02:40:04.900Z,221.02
2022-11-28T02:42:38.716Z,210.95
2022-11-28T02:45:13.082Z,244.20
2022-11-28T02:47:46.562Z,236.27
2022-11-28T02:50:19.335Z,222.20
2022-11-28T02:52:51.880Z,221.93
2022-11-28T02:55:20.587Z,230.10
2022-11-28T02:57:51.340Z,236.43
2022-11-28T03:00:28.703Z,227.40
2022-11-28T03:03:21.732Z,211.38
2022-11-28T03:05:56.036Z,223.00
2022-11-28T03:08:54.422Z,228.30
2022-11-28T03:11:30.634Z,227.70
2022-11-28T03:14:02.529Z,210.82
2022-11-28T03:16:35.671Z,218.65
2022-11-28T03:19:11.249Z,227.27
2022-11-28T03:21:42.232Z,226.40
2022-11-28T03:24:16.095Z,209.90
2022-11-28T03:26:51.557Z,230.45
2022-11-28T03:29:23.212Z,225.38
2022-11-28T03:31:54.343Z,251.60
2022-11-28T03:34:26.331Z,258.15
2022-11-28T03:36:58.136Z,224.02
2022-11-28T03:39:31.124Z,251.20
2022-11-28T03:42:03.547Z,239.30
2022-11-28T03:44:34.488Z,236.95
2022-11-28T03:47:04.234Z,223.80
2022-11-28T03:49:36.701Z,256.15
2022-11-28T03:52:06.961Z,248.15
2022-11-28T03:54:38.165Z,227.73
2022-11-28T03:57:10.362Z,208.27
2022-11-28T03:59:41.299Z,264.63
2022-11-28T04:02:17.133Z,232.48
2022-11-28T04:04:52.844Z,199.38
2022-11-28T04:07:25.219Z,198.80
2022-11-28T04:09:59.525Z,202.60
2022-11-28T04:12:36.648Z,192.90
2022-11-28T04:15:10.931Z,232.63
2022-11-28T04:17:42.763Z,447.08
2022-11-28T04:20:15.287Z,168.80
2022-11-28T04:22:47.386Z,226.82
2022-11-28T04:25:18.078Z,168.23
2022-11-28T04:27:52.791Z,159.80
2022-11-28T04:32:51.748Z,171.55
2022-11-28T04:35:25.782Z,195.48
2022-11-28T04:37:54.793Z,229.77
2022-11-28T04:40:25.589Z,232.32
2022-11-28T04:42:56.770Z,252.00
2022-11-28T04:45:28.060Z,176.18
2022-11-28T04:47:57.596Z,213.18
2022-11-28T04:50:31.613Z,258.73
2022-11-28T04:53:05.300Z,191.27
2022-11-28T04:55:38.693Z,201.20
2022-11-28T04:58:10.676Z,136.38
2022-11-28T05:00:40.309Z,135.63
2022-11-28T05:03:09.285Z,117.55
2022-11-28T05:05:46.081Z,128.85
2022-11-28T05:08:14.994Z,116.75
2022-11-28T05:10:43.662Z,129.57
2022-11-28T05:13:12.347Z,155.70
2022-11-28T05:15:40.869Z,109.82
2022-11-28T05:18:09.667Z,149.23
2022-11-28T05:20:39.186Z,165.25
2022-11-28T05:23:09.287Z,202.32
2022-11-28T05:25:39.857Z,185.25
2022-11-28T05:28:08.643Z,117.32
2022-11-28T05:30:37.044Z,171.15
2022-11-28T05:33:05.838Z,230.75
2022-11-28T05:35:34.375Z,234.57
2022-11-28T05:38:03.072Z,145.27
2022-11-28T05:40:35.479Z,229.20
2022-11-28T05:43:04.015Z,260.20
2022-11-28T05:45:33.749Z,161.05
2022-11-28T05:48:02.211Z,208.52
2022-11-28T05:50:31.492Z,213.10
2022-11-28T05:53:02.308Z,264.83
2022-11-28T05:55:32.184Z,183.63
2022-11-28T05:58:00.639Z,226.93
2022-11-28T06:00:29.609Z,352.83
2022-11-28T06:03:05.511Z,224.93
2022-11-28T06:05:42.925Z,164.32
2022-11-28T06:08:13.082Z,227.95
2022-11-28T06:10:43.168Z,198.93
2022-11-28T06:13:11.648Z,189.38
2022-11-28T06:15:43.588Z,216.07
2022-11-28T06:18:12.225Z,231.55
2022-11-28T06:20:42.936Z,449.08
2022-11-28T06:23:11.479Z,173.93
2022-11-28T06:25:39.971Z,242.68
2022-11-28T06:28:10.138Z,231.80
2022-11-28T06:30:38.933Z,188.80
2022-11-28T06:33:07.591Z,149.60
2022-11-28T06:35:36.520Z,164.60
2022-11-28T06:38:06.362Z,337.25
2022-11-28T06:40:40.430Z,364.88
2022-11-28T06:43:10.152Z,255.25
2022-11-28T06:45:38.744Z,160.52
2022-11-28T06:48:07.548Z,119.82
2022-11-28T06:50:36.025Z,258.42
2022-11-28T06:53:04.558Z,186.50
2022-11-28T06:55:33.385Z,221.98
2022-11-28T06:58:01.829Z,111.28
2022-11-28T07:00:31.638Z,258.20
2022-11-28T07:03:00.173Z,157.27
2022-11-28T07:05:28.763Z,262.65
2022-11-28T07:07:57.280Z,141.43
2022-11-28T07:10:26.433Z,217.63
2022-11-28T07:13:00.261Z,218.23
2022-11-28T07:15:33.939Z,181.82
2022-11-28T07:18:02.484Z,171.73
2022-11-28T07:20:31.069Z,201.07
2022-11-28T07:22:59.562Z,250.95
2022-11-28T07:25:28.127Z,145.18
2022-11-28T07:27:56.705Z,187.20
2022-11-28T07:30:25.112Z,200.73
2022-11-28T07:32:55.012Z,185.20
2022-11-28T07:35:23.722Z,157.82
2022-11-28T07:37:52.129Z,311.45
2022-11-28T07:40:22.817Z,243.55
2022-11-28T07:42:51.498Z,149.63
2022-11-28T07:45:20.427Z,112.38
2022-11-28T07:47:48.818Z,293.38
2022-11-28T07:50:18.579Z,277.63
2022-11-28T07:52:49.816Z,110.53
2022-11-28T07:55:21.720Z,154.25
2022-11-28T07:57:50.226Z,204.57
2022-11-28T08:00:20.179Z,126.15
2022-11-28T08:02:48.643Z,203.05
2022-11-28T08:05:18.698Z,136.38
2022-11-28T08:07:47.275Z,185.10
2022-11-28T08:10:16.139Z,153.82
2022-11-28T08:12:45.058Z,121.00
2022-11-28T08:15:14.523Z,82.25
2022-11-28T08:17:43.087Z,128.13
2022-11-28T08:20:12.764Z,204.93
2022-11-28T08:22:42.800Z,116.55
2022-11-28T08:25:11.761Z,100.82
2022-11-28T08:27:40.192Z,132.82
2022-11-28T08:30:10.393Z,112.28
2022-11-28T08:32:39.001Z,193.38
2022-11-28T08:35:08.193Z,248.40
2022-11-28T08:37:39.803Z,201.27
2022-11-28T08:40:10.897Z,87.45
2022-11-28T08:42:39.555Z,113.10
2022-11-28T08:45:09.016Z,248.25
2022-11-28T08:47:37.345Z,118.82
2022-11-28T08:50:06.868Z,102.10
2022-11-28T08:52:35.317Z,143.50
2022-11-28T08:55:04.092Z,177.35
2022-11-28T08:57:34.034Z,148.98
2022-11-28T09:00:02.611Z,57.58
2022-11-28T09:02:31.055Z,98.53
2022-11-28T09:04:59.731Z,103.45
2022-11-28T09:07:28.666Z,105.20
2022-11-28T09:09:57.182Z,108.97
2022-11-28T09:12:26.188Z,91.10
2022-11-28T09:14:56.245Z,105.18
2022-11-28T09:17:24.657Z,175.75
2022-11-28T09:19:53.463Z,149.95
2022-11-28T09:22:21.863Z,262.10
2022-11-28T09:24:50.609Z,158.13
2022-11-28T09:27:19.182Z,97.88
2022-11-28T09:29:48.503Z,102.07
2022-11-28T09:32:18.622Z,256.45
2022-11-28T09:34:47.264Z,117.97
2022-11-28T09:37:15.801Z,149.85
2022-11-28T09:40:11.032Z,81.22
2022-11-28T09:42:35.546Z,109.38
2022-11-28T09:45:06.693Z,91.03
2022-11-28T09:47:38.957Z,81.75
2022-11-28T09:50:15.335Z,91.28
2022-11-28T09:52:49.979Z,136.38
2022-11-28T09:57:49.755Z,176.88
2022-11-28T10:00:22.757Z,274.73
2022-11-28T10:03:15.240Z,183.40
2022-11-28T10:05:48.069Z,87.55
2022-11-28T10:08:24.955Z,79.07
2022-11-28T10:11:02.254Z,91.18
2022-11-28T10:14:06.176Z,83.35
2022-11-28T10:16:32.049Z,91.65
2022-11-28T10:19:31.703Z,76.90
2022-11-28T10:22:06.263Z,167.45
2022-11-28T10:24:38.874Z,145.60
2022-11-28T10:27:08.137Z,90.80
2022-11-28T10:29:46.255Z,94.78
2022-11-28T10:32:18.886Z,82.15
2022-11-28T10:34:54.705Z,108.95
2022-11-28T10:37:27.286Z,92.47
2022-11-28T10:39:57.557Z,77.95
2022-11-28T10:42:30.059Z,70.07
2022-11-28T10:45:06.334Z,69.80
2022-11-28T10:47:50.685Z,83.07
2022-11-28T10:50:32.118Z,92.75
2022-11-28T10:53:03.757Z,122.05
2022-11-28T10:55:41.438Z,76.45
2022-11-28T10:58:15.295Z,93.20
2022-11-28T11:00:45.402Z,120.28
2022-11-28T11:03:15.457Z,151.65
2022-11-28T11:05:45.738Z,147.57
2022-11-28T11:08:20.830Z,206.70
2022-11-28T11:10:53.285Z,161.43
2022-11-28T11:13:24.258Z,146.82
2022-11-28T11:15:59.016Z,136.23
2022-11-28T11:18:28.985Z,88.07
2022-11-28T11:21:15.363Z,303.02
2022-11-28T11:23:43.852Z,131.57
2022-11-28T11:26:23.541Z,142.45
2022-11-28T11:28:53.149Z,95.97
2022-11-28T11:31:26.209Z,140.82
2022-11-28T11:34:02.142Z,142.48
2022-11-28T11:36:34.279Z,181.27
2022-11-28T11:39:23.492Z,248.00
2022-11-28T11:41:53.676Z,292.83
2022-11-28T11:44:35.132Z,241.15
2022-11-28T11:47:05.747Z,188.18
2022-11-28T11:49:36.296Z,143.70
2022-11-28T11:52:12.824Z,142.65
2022-11-28T11:54:41.840Z,127.32
2022-11-28T11:57:32.137Z,199.38
2022-11-28T12:00:03.550Z,138.93
2022-11-28T12:02:55.845Z,236.40
2022-11-28T12:10:14.120Z,217.73
2022-11-28T12:12:43.338Z,194.15
2022-11-28T12:15:18.807Z,255.10
2022-11-28T12:17:59.084Z,390.08
2022-11-28T12:20:40.889Z,206.70
2022-11-28T12:23:27.272Z,214.80
2022-11-28T12:26:00.646Z,326.60
2022-11-28T12:28:37.511Z,320.77
2022-11-28T12:31:12.924Z,321.77
2022-11-28T12:33:48.904Z,240.77
2022-11-28T12:36:25.956Z,292.88
2022-11-28T12:39:04.940Z,419.35
2022-11-28T12:41:47.463Z,244.23
2022-11-28T12:44:21.600Z,256.73
2022-11-28T12:46:55.366Z,421.25
2022-11-28T12:49:29.444Z,258.77
2022-11-28T12:52:06.825Z,320.20
2022-11-28T12:58:05.484Z,257.13
2022-11-28T13:00:35.697Z,282.70
2022-11-28T13:03:13.139Z,482.63
2022-11-28T13:09:17.842Z,322.30
2022-11-28T13:12:11.043Z,352.05
2022-11-28T13:14:49.736Z,349.17
2022-11-28T13:17:26.705Z,299.52
2022-11-28T13:20:15.017Z,332.95
2022-11-28T13:23:19.261Z,445.95
2022-11-28T13:25:55.995Z,237.20
2022-11-28T13:28:30.543Z,291.20
2022-11-28T13:33:45.679Z,210.50
2022-11-28T13:39:13.845Z,402.83
2022-11-28T13:42:13.927Z,311.17
2022-11-28T13:44:38.965Z,274.50
2022-11-28T13:47:29.562Z,273.88
2022-11-28T13:50:35.291Z,311.88
2022-11-28T13:53:05.025Z,286.23
2022-11-28T13:55:41.828Z,343.27
2022-11-28T13:58:18.832Z,327.98
2022-11-28T14:01:01.453Z,479.58
2022-11-28T14:03:34.152Z,319.80
2022-11-28T14:06:04.890Z,356.02
2022-11-28T14:08:35.477Z,327.73
2022-11-28T14:11:34.482Z,312.95
2022-11-28T14:14:26.695Z,315.27
2022-11-28T14:17:04.818Z,379.20
2022-11-28T14:19:51.682Z,392.02
2022-11-28T14:22:28.985Z,427.17
2022-11-28T14:25:08.239Z,370.77
2022-11-28T14:27:39.300Z,320.65
2022-11-28T14:30:14.845Z,317.02
2022-11-28T14:32:44.213Z,336.92
2022-11-28T14:35:19.199Z,298.45
2022-11-28T14:37:56.419Z,290.73
2022-11-28T14:41:06.774Z,467.73
2022-11-28T14:43:37.389Z,429.02
2022-11-28T14:46:24.397Z,365.55
2022-11-28T14:49:26.403Z,328.58
2022-11-28T14:55:20.960Z,271.23
2022-11-28T14:57:58.544Z,297.00
2022-11-28T15:01:12.030Z,525.75
2022-11-28T15:03:56.264Z,543.45
2022-11-28T15:06:32.217Z,362.65
2022-11-28T15:09:13.224Z,584.20
2022-11-28T15:12:16.410Z,421.05
2022-11-28T15:22:46.672Z,397.40
2022-11-28T15:25:28.544Z,389.67
2022-11-28T15:28:59.411Z,414.38
2022-11-28T15:32:05.430Z,407.15
2022-11-28T15:34:46.596Z,355.08
2022-11-28T15:37:22.084Z,450.05
2022-11-28T15:40:27.177Z,479.92
2022-11-28T15:43:41.165Z,669.97
2022-11-28T15:46:25.294Z,474.13
2022-11-28T16:51:48.560Z,491.92
2022-11-28T16:54:29.512Z,582.88
2022-11-28T16:57:18.501Z,450.58
2022-11-28T18:22:16.837Z,528.90
2022-11-28T18:24:45.448Z,478.50
2022-11-28T18:27:16.447Z,424.77
2022-11-28T18:29:45.342Z,390.85
2022-11-28T18:45:36.498Z,487.05
2022-11-28T18:48:05.245Z,441.40
2022-11-28T18:50:36.081Z,421.63
2022-11-28T18:53:13.518Z,408.75
2022-11-28T18:55:46.647Z,385.10
2022-11-28T18:58:15.247Z,373.00
2022-11-28T19:00:45.443Z,579.25
2022-11-28T19:03:15.634Z,391.40
2022-11-28T19:05:44.349Z,422.27
2022-11-28T19:08:19.455Z,376.80
2022-11-28T19:10:52.290Z,352.55
2022-11-28T19:13:21.280Z,368.75
2022-11-28T19:16:01.416Z,341.15
2022-11-28T19:18:31.845Z,353.42
2022-11-28T19:21:02.640Z,356.98
2022-11-28T19:23:33.919Z,365.65
2022-11-28T19:26:06.898Z,361.38
2022-11-28T19:29:00.495Z,370.83
2022-11-28T19:35:45.678Z,389.08
2022-11-28T20:33:45.440Z,342.30
2022-11-28T20:36:15.517Z,374.55
2022-11-28T20:38:44.571Z,423.58
2022-11-28T20:41:17.685Z,465.45
2022-11-28T20:43:46.687Z,392.63
2022-11-28T20:46:16.964Z,449.35
2022-11-28T20:48:47.423Z,471.13
2022-11-28T20:51:17.856Z,438.73
2022-11-28T20:53:46.619Z,483.50
2022-11-28T20:56:16.408Z,495.75
2022-11-28T20:58:45.325Z,448.30
2022-11-28T21:01:17.238Z,448.00
2022-11-28T21:03:52.299Z,289.65
2022-11-28T21:07:00.548Z,469.95
2022-11-28T21:09:29.143Z,489.98
2022-11-28T21:12:06.025Z,488.25
2022-11-28T21:14:34.867Z,461.77
2022-11-28T21:17:03.597Z,353.63
2022-11-28T21:19:33.468Z,440.35
2022-11-28T21:40:05.211Z,408.45
2022-11-28T21:56:29.276Z,449.75
2022-11-28T21:58:57.826Z,413.17
2022-11-28T22:01:26.448Z,387.13
2022-11-28T22:04:00.640Z,419.35
2022-11-28T22:09:22.547Z,381.38
2022-11-28T22:11:52.424Z,381.25
2022-11-28T22:14:20.971Z,379.92
2022-11-28T22:16:49.442Z,356.48
2022-11-28T22:19:18.083Z,327.05
2022-11-28T22:21:56.171Z,343.20
2022-11-28T22:24:24.937Z,374.38
2022-11-28T22:26:54.861Z,334.58
2022-11-28T22:29:23.484Z,352.23
2022-11-28T22:31:51.997Z,343.77
2022-11-28T22:34:20.689Z,322.23
2022-11-28T22:36:49.224Z,343.20
2022-11-28T22:39:17.795Z,365.75
2022-11-28T22:41:46.214Z,318.10
2022-11-28T22:44:16.188Z,359.45
2022-11-28T22:46:44.785Z,354.65
2022-11-28T22:49:13.638Z,301.52
2022-11-28T22:51:42.248Z,381.30
2022-11-28T22:54:13.470Z,351.60
2022-11-28T22:56:41.996Z,349.42
2022-11-28T22:59:13.401Z,383.27
2022-11-28T23:01:44.630Z,380.85
2022-11-28T23:04:13.220Z,372.35
2022-11-28T23:06:41.815Z,398.98
2022-11-28T23:09:11.399Z,355.20
2022-11-28T23:11:41.076Z,357.55
2022-11-28T23:14:09.623Z,364.58
2022-11-28T23:16:40.394Z,364.10
2022-11-28T23:19:13.187Z,357.52
2022-11-28T23:21:43.584Z,326.38
2022-11-28T23:24:15.553Z,366.15
2022-11-28T23:26:44.987Z,370.52
2022-11-28T23:29:14.016Z,367.25
2022-11-28T23:31:43.322Z,310.60
2022-11-28T23:34:13.438Z,333.17
2022-11-28T23:36:43.154Z,376.52
2022-11-28T23:39:14.386Z,322.33
2022-11-28T23:41:43.225Z,374.02
2022-11-28T23:44:12.494Z,390.83
2022-11-28T23:46:41.314Z,340.15
2022-11-28T23:49:10.451Z,369.38
2022-11-28T23:51:41.720Z,375.42
2022-11-28T23:54:11.313Z,320.60
2022-11-28T23:56:41.453Z,260.35
2022-11-28T23:59:11.805Z,331.25
